Time;durP1;ratioP1;P1;durP2;ratioP2;P2;SDS_P1;SDS_P2;PMS_P1;PMS_P2;Temp;Humidity;BMP_temperature;BMP_pressure;BME280_temperature;BME280_humidity;BME280_pressure;Samples;Min_cycle;Max_cycle;Signal;HPM_P1;HPM_P2
2020/09/06 00:01:30;;;;;;;1.4;0.8;;;;;;;18.2;81.38672;939.8589;;;;
2020/09/06 00:03:55;;;;;;;0.5;0.5;;;;;;;18.27;81.30664;939.887;;;;
2020/09/06 00:06:21;;;;;;;1.2;0.8;;;;;;;18.29;80.3457;939.9327;;;;
2020/09/06 00:08:45;;;;;;;1.9;0.9;;;;;;;18.39;80.99316;939.8647;;;;
2020/09/06 00:11:11;;;;;;;0.9;0.8;;;;;;;18.42;80.32324;939.9355;;;;
2020/09/06 00:13:36;;;;;;;1;0.8;;;;;;;18.38;80.55957;939.994;;;;
2020/09/06 00:16:03;;;;;;;1.8;0.8;;;;;;;18.55;80.24219;940.1379;;;;
2020/09/06 00:18:28;;;;;;;2.3;1;;;;;;;18.38;80.83887;940.2293;;;;
2020/09/06 00:21:00;;;;;;;0.8;0.5;;;;;;;18.59;80.79395;940.2317;;;;
2020/09/06 00:23:25;;;;;;;0.8;0.6;;;;;;;18.58;80.00293;940.1794;;;;
2020/09/06 00:25:50;;;;;;;0.5;0.5;;;;;;;18.52;80.43262;940.2241;;;;
2020/09/06 00:28:17;;;;;;;0.8;0.8;;;;;;;18.51;80.29395;940.1088;;;;
2020/09/06 00:30:42;;;;;;;0.7;0.6;;;;;;;18.37;80.2207;940.2006;;;;
2020/09/06 00:33:08;;;;;;;0.5;0.4;;;;;;;18.38;80.23438;940.1633;;;;
2020/09/06 00:35:33;;;;;;;1.4;0.9;;;;;;;18.13;81.53516;940.0319;;;;
2020/09/06 00:37:59;;;;;;;2.3;0.7;;;;;;;18.12;81.34961;940.0231;;;;
2020/09/06 00:40:24;;;;;;;0.9;0.7;;;;;;;17.98;82.07617;939.9696;;;;
2020/09/06 00:42:51;;;;;;;0.8;0.7;;;;;;;17.89;82.00293;939.9307;;;;
2020/09/06 00:45:16;;;;;;;0.7;0.5;;;;;;;17.72;82.61914;939.9437;;;;
2020/09/06 00:47:43;;;;;;;0.9;0.7;;;;;;;17.86;82.27637;940.007;;;;
2020/09/06 00:50:08;;;;;;;2.2;1;;;;;;;18.03;81.78223;939.9892;;;;
2020/09/06 00:52:34;;;;;;;0.8;0.7;;;;;;;18.29;81.08887;939.9746;;;;
2020/09/06 00:54:59;;;;;;;1.1;0.7;;;;;;;18.35;80.65918;939.9558;;;;
2020/09/06 00:57:24;;;;;;;3.3;1;;;;;;;18.41;80.62207;939.9846;;;;
2020/09/06 00:59:49;;;;;;;1;0.8;;;;;;;18.51;80.5127;939.9363;;;;
2020/09/06 01:02:14;;;;;;;1.2;1;;;;;;;18.41;79.4834;940.0015;;;;
2020/09/06 01:04:40;;;;;;;2;1.2;;;;;;;18.47;78.94824;939.9991;;;;
2020/09/06 01:07:05;;;;;;;1.4;0.9;;;;;;;18.61;78.7168;940.0449;;;;
2020/09/06 01:09:31;;;;;;;2.7;1.1;;;;;;;18.62;78.73145;940.0571;;;;
2020/09/06 01:11:56;;;;;;;1.7;1.1;;;;;;;18.69;78.17285;940.1053;;;;
2020/09/06 01:14:21;;;;;;;1.3;1.1;;;;;;;18.84;76.91992;940.2028;;;;
2020/09/06 01:16:46;;;;;;;1.1;0.8;;;;;;;18.79;77.16797;940.2913;;;;
2020/09/06 01:19:11;;;;;;;2.9;1.2;;;;;;;18.73;77.27344;940.2296;;;;
2020/09/06 01:21:36;;;;;;;1;0.9;;;;;;;18.96;76.31348;940.2352;;;;
2020/09/06 01:24:01;;;;;;;2.6;1.3;;;;;;;18.99;75.97852;940.2692;;;;
2020/09/06 01:26:26;;;;;;;2;1.3;;;;;;;18.74;77.23828;940.2916;;;;
2020/09/06 01:28:52;;;;;;;1.6;1.1;;;;;;;18.79;77.35254;940.2308;;;;
2020/09/06 01:31:17;;;;;;;3;1.1;;;;;;;18.76;77.08008;940.0959;;;;
2020/09/06 01:33:42;;;;;;;2;1.1;;;;;;;18.45;78.52637;940.122;;;;
2020/09/06 01:36:07;;;;;;;0.9;0.8;;;;;;;18.57;77.64063;940.0538;;;;
2020/09/06 01:38:32;;;;;;;4.4;1.2;;;;;;;18.37;78.08203;940.0313;;;;
2020/09/06 01:40:57;;;;;;;1.4;1;;;;;;;18.33;78.17871;940.0198;;;;
2020/09/06 01:43:25;;;;;;;1.8;1.4;;;;;;;18.53;77.77344;940.0569;;;;
2020/09/06 01:45:52;;;;;;;2.3;1.6;;;;;;;18.5;78.13867;940.0454;;;;
2020/09/06 01:48:17;;;;;;;2.4;1.3;;;;;;;18.53;78.05273;940.0908;;;;
2020/09/06 01:50:44;;;;;;;4.1;1.1;;;;;;;18.38;77.8623;940.0133;;;;
2020/09/06 01:53:09;;;;;;;2.2;1.2;;;;;;;18.36;78.44043;940.0193;;;;
2020/09/06 01:55:36;;;;;;;1.2;1;;;;;;;18.5;77.3252;940.0164;;;;
2020/09/06 01:58:01;;;;;;;5.9;1.6;;;;;;;18.46;77.77246;939.938;;;;
2020/09/06 02:00:27;;;;;;;1.3;1;;;;;;;18.57;77.7666;939.9272;;;;
2020/09/06 02:02:52;;;;;;;1.7;1.2;;;;;;;18.44;78.8623;939.8844;;;;
2020/09/06 02:05:19;;;;;;;2.4;0.9;;;;;;;18.34;79.14648;939.8455;;;;
2020/09/06 02:07:45;;;;;;;1.4;1.1;;;;;;;18.34;78.92578;939.8447;;;;
2020/09/06 02:12:38;;;;;;;1.1;0.9;;;;;;;18.49;77.79004;939.8317;;;;
2020/09/06 02:15:03;;;;;;;2.2;1.5;;;;;;;18.36;78.85742;939.7548;;;;
2020/09/06 02:17:28;;;;;;;2.2;1.1;;;;;;;18.44;77.93164;939.7561;;;;
2020/09/06 02:19:53;;;;;;;0.9;0.9;;;;;;;18.49;77.61426;939.7084;;;;
2020/09/06 02:22:19;;;;;;;6;1.1;;;;;;;18.5;77.52441;939.7703;;;;
2020/09/06 02:24:44;;;;;;;1.2;0.7;;;;;;;18.66;77.02832;939.8017;;;;
2020/09/06 02:27:10;;;;;;;1.2;0.9;;;;;;;18.61;77.4375;939.8061;;;;
2020/09/06 02:29:35;;;;;;;2;1.3;;;;;;;18.53;77.56445;939.7535;;;;
2020/09/06 02:32:04;;;;;;;3.8;1.2;;;;;;;18.6;77.66992;939.7603;;;;
2020/09/06 02:34:29;;;;;;;2.7;1.2;;;;;;;18.44;78.02344;939.7747;;;;
2020/09/06 02:36:54;;;;;;;1.3;1.1;;;;;;;18.59;77.4209;939.8187;;;;
2020/09/06 02:39:19;;;;;;;1.2;0.9;;;;;;;18.47;78.45801;939.7944;;;;
2020/09/06 02:41:45;;;;;;;2.4;0.9;;;;;;;18.26;79.17871;939.7147;;;;
2020/09/06 02:44:10;;;;;;;1.9;1.4;;;;;;;18.27;78.90137;939.7766;;;;
2020/09/06 02:46:36;;;;;;;1.6;1;;;;;;;18.11;79.47559;939.7542;;;;
2020/09/06 02:49:01;;;;;;;1.7;1.1;;;;;;;17.94;80.39844;939.6792;;;;
2020/09/06 02:51:28;;;;;;;1.3;1;;;;;;;17.92;80.41699;939.6892;;;;
2020/09/06 02:53:53;;;;;;;2.8;1.4;;;;;;;18.17;79.68359;939.6847;;;;
2020/09/06 02:56:21;;;;;;;1.8;1;;;;;;;17.99;80.79004;939.6995;;;;
2020/09/06 02:58:46;;;;;;;2.5;1.1;;;;;;;17.81;81.44043;939.6917;;;;
2020/09/06 03:01:14;;;;;;;5.1;1.7;;;;;;;17.76;81.57324;939.6489;;;;
2020/09/06 03:03:39;;;;;;;1.6;1.1;;;;;;;17.87;81.20801;939.72;;;;
2020/09/06 03:06:06;;;;;;;2.6;1;;;;;;;17.86;81.90332;939.6758;;;;
2020/09/06 03:08:31;;;;;;;1.7;1;;;;;;;17.68;82.47461;939.6429;;;;
2020/09/06 03:10:58;;;;;;;2.5;1.3;;;;;;;17.83;81.22461;939.6948;;;;
2020/09/06 03:13:23;;;;;;;2.2;1.5;;;;;;;17.89;81.13184;939.7172;;;;
2020/09/06 03:15:52;;;;;;;1.1;0.8;;;;;;;18.14;80.37695;939.7319;;;;
2020/09/06 03:18:17;;;;;;;1.5;1.2;;;;;;;18.02;80.23828;939.7524;;;;
2020/09/06 03:20:42;;;;;;;1.5;1.3;;;;;;;18.18;79.87109;939.7868;;;;
2020/09/06 03:23:07;;;;;;;1.4;1.3;;;;;;;17.97;80.35742;939.7618;;;;
2020/09/06 03:25:32;;;;;;;2.1;1;;;;;;;18.14;79.46875;939.6908;;;;
2020/09/06 03:27:57;;;;;;;1.9;1.1;;;;;;;18.14;78.95996;939.6448;;;;
2020/09/06 03:30:22;;;;;;;2.1;1;;;;;;;18.13;79.03809;939.6409;;;;
2020/09/06 03:32:48;;;;;;;2.2;1.2;;;;;;;18.32;78.39746;939.5774;;;;
2020/09/06 03:35:13;;;;;;;2.1;1.8;;;;;;;18.24;78.83789;939.5659;;;;
2020/09/06 03:37:40;;;;;;;0.9;0.8;;;;;;;18.03;79.78613;939.562;;;;
2020/09/06 03:40:05;;;;;;;1.7;1;;;;;;;18.09;79.24219;939.5602;;;;
2020/09/06 03:42:30;;;;;;;3.8;1.7;;;;;;;18.19;78.61719;939.5924;;;;
2020/09/06 03:44:55;;;;;;;1.7;1.2;;;;;;;18.23;78.88086;939.5701;;;;
2020/09/06 03:47:21;;;;;;;1.1;1;;;;;;;18.22;78.64844;939.5969;;;;
2020/09/06 03:49:46;;;;;;;1.5;1;;;;;;;18.31;78.04883;939.6211;;;;
2020/09/06 03:52:12;;;;;;;2.8;1.3;;;;;;;18.31;78.34766;939.4963;;;;
2020/09/06 03:54:37;;;;;;;1.4;1.1;;;;;;;18.29;78.23047;939.5859;;;;
2020/09/06 03:57:02;;;;;;;2;1.4;;;;;;;18.34;78.0293;939.5884;;;;
2020/09/06 03:59:27;;;;;;;2.6;1.3;;;;;;;18.38;77.83887;939.6223;;;;
2020/09/06 04:02:34;;;;;;;1.7;1;;;;;;;18.27;78.56348;939.6549;;;;
2020/09/06 04:04:59;;;;;;;1.9;1.3;;;;;;;18.19;79.03711;939.6406;;;;
2020/09/06 04:07:24;;;;;;;2.2;1.3;;;;;;;18.02;79.81934;939.5846;;;;
2020/09/06 04:09:50;;;;;;;3.1;1.5;;;;;;;18.01;80.03906;939.5541;;;;
2020/09/06 04:12:15;;;;;;;1.7;1.2;;;;;;;17.86;80.55664;939.4608;;;;
2020/09/06 04:14:40;;;;;;;3;1.4;;;;;;;17.87;80.22266;939.6111;;;;
2020/09/06 04:17:05;;;;;;;2;1.4;;;;;;;17.8;80.63965;939.6121;;;;
2020/09/06 04:19:31;;;;;;;4.3;1.4;;;;;;;17.83;80.41016;939.5613;;;;
2020/09/06 04:21:56;;;;;;;1.8;1.1;;;;;;;17.73;81.0459;939.5946;;;;
2020/09/06 04:24:21;;;;;;;2.5;1.6;;;;;;;17.73;81.35742;939.6124;;;;
2020/09/06 04:26:46;;;;;;;2.1;1.1;;;;;;;17.6;81.9375;939.5823;;;;
2020/09/06 04:29:11;;;;;;;2.4;1.6;;;;;;;17.51;82.41797;939.6008;;;;
2020/09/06 04:31:36;;;;;;;1.8;1.2;;;;;;;17.55;82.03027;939.5889;;;;
2020/09/06 04:34:03;;;;;;;1.9;1.4;;;;;;;17.44;82.44043;939.6541;;;;
2020/09/06 04:36:28;;;;;;;1.8;1.3;;;;;;;17.54;82.22754;939.5769;;;;
2020/09/06 04:38:54;;;;;;;4.6;1.7;;;;;;;17.56;82.2207;939.5073;;;;
2020/09/06 04:41:20;;;;;;;2.3;1.2;;;;;;;17.63;81.93066;939.4993;;;;
2020/09/06 04:43:45;;;;;;;2.9;1.7;;;;;;;17.65;81.69043;939.5223;;;;
2020/09/06 04:46:10;;;;;;;2.9;1.3;;;;;;;17.65;81.05273;939.5698;;;;
2020/09/06 04:48:36;;;;;;;5.4;1.4;;;;;;;17.64;81.61914;939.5636;;;;
2020/09/06 04:51:01;;;;;;;1.7;1.1;;;;;;;17.62;81.20801;939.5298;;;;
2020/09/06 04:53:27;;;;;;;2.6;1.3;;;;;;;17.67;81.82129;939.522;;;;
2020/09/06 04:55:52;;;;;;;2.1;1.4;;;;;;;17.46;82.66504;939.5089;;;;
2020/09/06 04:58:17;;;;;;;3.1;1.3;;;;;;;17.19;84.13281;939.517;;;;
2020/09/06 05:00:44;;;;;;;2.6;1.8;;;;;;;17.11;84.77734;939.5511;;;;
2020/09/06 05:03:09;;;;;;;1.6;1.4;;;;;;;17.07;85.33691;939.6105;;;;
2020/09/06 05:05:34;;;;;;;2.9;1.2;;;;;;;17.13;84.82715;939.563;;;;
2020/09/06 05:08:00;;;;;;;5.4;1.9;;;;;;;17.22;84.69434;939.5658;;;;
2020/09/06 05:10:25;;;;;;;1.2;1.1;;;;;;;17.15;84.55469;939.5859;;;;
2020/09/06 05:12:52;;;;;;;2.2;1.2;;;;;;;17.06;85.04688;939.5413;;;;
2020/09/06 05:15:17;;;;;;;2.4;1.7;;;;;;;16.97;86.12988;939.5012;;;;
2020/09/06 05:17:43;;;;;;;1.1;1;;;;;;;17.12;85.20996;939.5469;;;;
2020/09/06 05:20:09;;;;;;;1.8;1.2;;;;;;;17.17;85.00977;939.56;;;;
2020/09/06 05:22:33;;;;;;;2.1;1.5;;;;;;;17.13;84.86426;939.5284;;;;
2020/09/06 05:24:58;;;;;;;3.2;1.4;;;;;;;17.04;85.63477;939.6044;;;;
2020/09/06 05:27:24;;;;;;;1.7;1.2;;;;;;;17.26;84.85352;939.6186;;;;
2020/09/06 05:29:53;;;;;;;1.2;1.1;;;;;;;17.34;84.28906;939.5779;;;;
2020/09/06 05:32:18;;;;;;;2.6;1.6;;;;;;;17.41;84.17383;939.54;;;;
2020/09/06 05:34:44;;;;;;;3.7;1.1;;;;;;;17.42;83.83887;939.5361;;;;
2020/09/06 05:37:10;;;;;;;1.5;1.2;;;;;;;17.42;83.12207;939.5119;;;;
2020/09/06 05:39:36;;;;;;;2.1;1.2;;;;;;;17.58;82.51465;939.5553;;;;
2020/09/06 05:42:01;;;;;;;2.2;1.5;;;;;;;17.66;82.05371;939.51;;;;
2020/09/06 05:44:26;;;;;;;2.5;1.8;;;;;;;17.74;81.83496;939.5236;;;;
2020/09/06 05:46:51;;;;;;;1.8;1.2;;;;;;;17.77;82.45508;939.4603;;;;
2020/09/06 05:49:16;;;;;;;1.7;1.3;;;;;;;17.5;83.83301;939.4551;;;;
2020/09/06 05:51:42;;;;;;;2.8;1.3;;;;;;;17.55;83.33105;939.3867;;;;
2020/09/06 05:54:08;;;;;;;3;1.3;;;;;;;17.49;83.8418;939.5092;;;;
2020/09/06 05:56:33;;;;;;;2.1;1.3;;;;;;;17.49;83.80664;939.465;;;;
2020/09/06 05:58:59;;;;;;;2.3;1.2;;;;;;;17.65;83.02539;939.483;;;;
2020/09/06 06:01:23;;;;;;;1.8;1.3;;;;;;;17.75;82.52344;939.5218;;;;
2020/09/06 06:03:50;;;;;;;1.8;1.3;;;;;;;17.95;81.45605;939.5123;;;;
2020/09/06 06:06:15;;;;;;;2.5;1.3;;;;;;;18.05;80.60254;939.5062;;;;
2020/09/06 06:08:43;;;;;;;2;1.3;;;;;;;17.93;80.24414;939.5256;;;;
2020/09/06 06:11:08;;;;;;;5.6;1.5;;;;;;;18.06;80.15332;939.5197;;;;
2020/09/06 06:13:33;;;;;;;1.9;1.2;;;;;;;18.02;80.86523;939.4629;;;;
2020/09/06 06:15:59;;;;;;;3.2;1.6;;;;;;;17.8;81.24316;939.5283;;;;
2020/09/06 06:18:27;;;;;;;1.6;1.2;;;;;;;17.8;81.6709;939.4913;;;;
2020/09/06 06:20:55;;;;;;;2;1.2;;;;;;;17.69;82.18457;939.3997;;;;
2020/09/06 06:23:20;;;;;;;3.5;1.7;;;;;;;17.59;82.60742;939.4441;;;;
2020/09/06 06:25:46;;;;;;;1.7;1.4;;;;;;;17.62;82.9834;939.4091;;;;
2020/09/06 06:28:11;;;;;;;1.7;1.3;;;;;;;17.58;83.4873;939.3613;;;;
2020/09/06 06:30:38;;;;;;;1.7;1.3;;;;;;;17.7;82.89453;939.3416;;;;
2020/09/06 06:33:04;;;;;;;2.2;1.5;;;;;;;17.61;83.44824;939.3729;;;;
2020/09/06 06:35:31;;;;;;;2.4;1.3;;;;;;;17.74;82.69434;939.4253;;;;
2020/09/06 06:37:56;;;;;;;1.6;1.2;;;;;;;17.84;81.81836;939.3959;;;;
2020/09/06 06:40:23;;;;;;;2;1.2;;;;;;;18.01;80.79199;939.3833;;;;
2020/09/06 06:42:48;;;;;;;2;1.3;;;;;;;17.79;82.29785;939.3602;;;;
2020/09/06 06:45:14;;;;;;;5.5;1.5;;;;;;;17.91;81.77441;939.3301;;;;
2020/09/06 06:47:39;;;;;;;1.5;1.3;;;;;;;18.04;80.95117;939.4063;;;;
2020/09/06 06:50:05;;;;;;;2;1.8;;;;;;;18.24;80.33691;939.3845;;;;
2020/09/06 06:52:32;;;;;;;3.5;1.9;;;;;;;18.36;79.125;939.3783;;;;
2020/09/06 06:54:57;;;;;;;4.2;1.9;;;;;;;18.32;79.80566;939.3605;;;;
2020/09/06 06:57:23;;;;;;;2.7;1;;;;;;;18.29;79.31055;939.353;;;;
2020/09/06 06:59:49;;;;;;;2;1.3;;;;;;;17.89;81.39746;939.312;;;;
2020/09/06 07:02:14;;;;;;;1.9;1;;;;;;;17.83;82.72266;939.2905;;;;
2020/09/06 07:04:39;;;;;;;2.4;1.1;;;;;;;18.21;81.2002;939.2889;;;;
2020/09/06 07:07:04;;;;;;;3.7;1.9;;;;;;;18.08;82.30371;939.259;;;;
2020/09/06 07:09:29;;;;;;;4.6;1.6;;;;;;;18.2;82.25781;939.3478;;;;
2020/09/06 07:11:54;;;;;;;2.3;1.1;;;;;;;18.37;81.31348;939.3371;;;;
2020/09/06 07:14:21;;;;;;;2.3;1.4;;;;;;;18.55;80.8584;939.346;;;;
2020/09/06 07:16:46;;;;;;;1.8;1.3;;;;;;;18.69;79.02148;939.3148;;;;
2020/09/06 07:19:21;;;;;;;1.6;1.2;;;;;;;18.97;78.03613;939.2592;;;;
2020/09/06 07:21:46;;;;;;;1.6;1.3;;;;;;;19.1;78.00195;939.2333;;;;
2020/09/06 07:24:11;;;;;;;1.3;1.1;;;;;;;19.27;77.1123;939.287;;;;
2020/09/06 07:26:36;;;;;;;2.2;1.2;;;;;;;19.36;76.47559;939.2011;;;;
2020/09/06 07:29:02;;;;;;;2.9;1.4;;;;;;;19.48;76.12305;939.1817;;;;
2020/09/06 07:31:27;;;;;;;1.5;0.9;;;;;;;19.64;76.68555;939.2037;;;;
2020/09/06 07:33:53;;;;;;;2.1;1.3;;;;;;;19.89;74.18652;939.1631;;;;
2020/09/06 07:36:18;;;;;;;2.2;1.1;;;;;;;19.87;74.11328;939.2128;;;;
2020/09/06 07:38:44;;;;;;;3.9;1;;;;;;;20.22;72.74707;939.2155;;;;
2020/09/06 07:41:10;;;;;;;2.2;1.6;;;;;;;20.25;71.52734;939.1833;;;;
2020/09/06 07:43:36;;;;;;;3;1.3;;;;;;;20.31;72.53027;939.1454;;;;
2020/09/06 07:46:01;;;;;;;2.7;1.5;;;;;;;20.43;71.55664;939.1331;;;;
2020/09/06 07:48:27;;;;;;;5.3;1.7;;;;;;;20.53;71.18652;939.0811;;;;
2020/09/06 07:50:52;;;;;;;2;0.8;;;;;;;20.63;71.48438;939.0963;;;;
2020/09/06 07:53:21;;;;;;;2;1.4;;;;;;;20.95;70.44824;939.0857;;;;
2020/09/06 07:55:46;;;;;;;1.8;1;;;;;;;21.16;69.24023;939.0873;;;;
2020/09/06 07:58:11;;;;;;;1.5;1.2;;;;;;;21.25;68.13379;939.0598;;;;
2020/09/06 08:00:36;;;;;;;4.5;0.9;;;;;;;21.52;67.37598;938.9612;;;;
2020/09/06 08:03:05;;;;;;;5.9;1.2;;;;;;;21.05;69.49316;939.0242;;;;
2020/09/06 08:05:28;;;;;;;1.3;0.9;;;;;;;21.11;69.95801;939.0117;;;;
2020/09/06 08:07:56;;;;;;;4.8;1.1;;;;;;;21.19;67.74805;939.0555;;;;
2020/09/06 08:10:21;;;;;;;1.6;0.8;;;;;;;21.23;68.02441;938.9583;;;;
2020/09/06 08:12:47;;;;;;;2.1;1.3;;;;;;;21.23;68.28125;938.998;;;;
2020/09/06 08:15:12;;;;;;;1.2;0.9;;;;;;;21.16;68.92383;938.9934;;;;
2020/09/06 08:17:37;;;;;;;1.2;0.9;;;;;;;21.1;68.92773;938.9644;;;;
2020/09/06 08:20:02;;;;;;;2.5;0.9;;;;;;;21.1;68.00488;938.8986;;;;
2020/09/06 08:22:27;;;;;;;3.2;1.2;;;;;;;21.17;67.86133;938.8652;;;;
2020/09/06 08:24:53;;;;;;;2.4;0.7;;;;;;;21.09;68.28418;938.89;;;;
2020/09/06 08:27:18;;;;;;;1.5;0.9;;;;;;;21.16;68.60938;938.8855;;;;
2020/09/06 08:29:43;;;;;;;2.2;1;;;;;;;21.24;68.5166;938.8365;;;;
2020/09/06 08:32:08;;;;;;;1.1;0.9;;;;;;;21.24;67.86133;938.8365;;;;
2020/09/06 08:34:33;;;;;;;1.2;1;;;;;;;21.29;67.75;938.8127;;;;
2020/09/06 08:36:58;;;;;;;1.6;0.9;;;;;;;20.98;67.45898;938.8641;;;;
2020/09/06 08:39:23;;;;;;;2.2;1.2;;;;;;;20.92;67.56641;938.8805;;;;
2020/09/06 08:41:50;;;;;;;1.3;0.9;;;;;;;20.95;68.10938;938.8195;;;;
2020/09/06 08:44:15;;;;;;;3.5;1.4;;;;;;;21.17;66.71582;938.8074;;;;
2020/09/06 08:46:40;;;;;;;5.9;0.9;;;;;;;21.29;67.08301;938.7885;;;;
2020/09/06 08:49:06;;;;;;;2.6;1.1;;;;;;;21.37;67.28418;938.8173;;;;
2020/09/06 08:51:32;;;;;;;1.6;0.9;;;;;;;21.4;67.10156;938.8367;;;;
2020/09/06 08:53:57;;;;;;;0.8;0.5;;;;;;;21.37;66.75781;938.7881;;;;
2020/09/06 08:56:24;;;;;;;2.9;1.1;;;;;;;21.52;67.22461;938.8;;;;
2020/09/06 08:58:49;;;;;;;1.7;1;;;;;;;21.59;67.03613;938.7734;;;;
2020/09/06 09:01:16;;;;;;;2.4;0.8;;;;;;;21.66;66.00586;938.7112;;;;
2020/09/06 09:03:41;;;;;;;1.1;0.7;;;;;;;21.6;66.20703;938.6935;;;;
2020/09/06 09:06:08;;;;;;;0.7;0.5;;;;;;;21.35;66.75586;938.7692;;;;
2020/09/06 09:08:33;;;;;;;1.1;0.9;;;;;;;21.08;67.68457;938.7817;;;;
2020/09/06 09:11:02;;;;;;;1.2;0.8;;;;;;;21.32;67.08887;938.7809;;;;
2020/09/06 09:13:27;;;;;;;2.5;1;;;;;;;21.24;66.75;938.7411;;;;
2020/09/06 09:15:52;;;;;;;0.9;0.7;;;;;;;21.19;67.09473;938.7695;;;;
2020/09/06 09:18:17;;;;;;;1;0.6;;;;;;;21.11;67.57227;938.7834;;;;
2020/09/06 09:20:43;;;;;;;0.8;0.7;;;;;;;20.39;69.57715;938.7598;;;;
2020/09/06 09:23:08;;;;;;;1.3;1;;;;;;;20.35;69.60449;938.6874;;;;
2020/09/06 09:25:33;;;;;;;0.8;0.8;;;;;;;20.31;69.84473;938.7274;;;;
2020/09/06 09:27:58;;;;;;;2.5;1.2;;;;;;;20.12;69.74414;938.7022;;;;
2020/09/06 09:30:25;;;;;;;2;1.1;;;;;;;19.83;71.45996;938.6989;;;;
2020/09/06 09:32:50;;;;;;;1.1;0.7;;;;;;;20.12;71.35352;938.6667;;;;
2020/09/06 09:35:16;;;;;;;1.6;1.1;;;;;;;20.33;69.5791;938.679;;;;
2020/09/06 09:37:41;;;;;;;1.4;0.8;;;;;;;20.37;69.52637;938.6326;;;;
2020/09/06 09:40:10;;;;;;;4.2;1.5;;;;;;;20.37;69.22266;938.618;;;;
2020/09/06 09:42:35;;;;;;;1;0.8;;;;;;;20.04;69.66113;938.6274;;;;
2020/09/06 09:45:00;;;;;;;1.2;0.7;;;;;;;19.92;70.43457;938.5852;;;;
2020/09/06 09:47:25;;;;;;;1.2;1;;;;;;;20.21;70.30762;938.6053;;;;
2020/09/06 09:49:52;;;;;;;2.6;1;;;;;;;20.5;69.94434;938.5308;;;;
2020/09/06 09:52:17;;;;;;;1;0.9;;;;;;;20.48;69.54297;938.5162;;;;
2020/09/06 09:54:47;;;;;;;1.1;0.9;;;;;;;20.8;69.80469;938.4846;;;;
2020/09/06 09:57:12;;;;;;;1.9;1.1;;;;;;;20.87;68.31836;938.4755;;;;
2020/09/06 09:59:41;;;;;;;0.8;0.7;;;;;;;21.12;67.91309;938.3961;;;;
2020/09/06 10:02:06;;;;;;;1.5;1;;;;;;;21.11;68.08691;938.355;;;;
2020/09/06 10:04:31;;;;;;;1;0.9;;;;;;;21.28;67.77344;938.3074;;;;
2020/09/06 10:06:56;;;;;;;1.4;1.1;;;;;;;21.29;67.68164;938.307;;;;
2020/09/06 10:09:22;;;;;;;2.6;1.3;;;;;;;21.35;67.03613;938.2817;;;;
2020/09/06 10:11:47;;;;;;;1.2;0.9;;;;;;;21.43;67.65625;938.2576;;;;
2020/09/06 10:14:13;;;;;;;1.2;0.9;;;;;;;21.93;65.39941;938.2075;;;;
2020/09/06 10:16:38;;;;;;;74.5;29.9;;;;;;;22.01;66.62012;938.2288;;;;
2020/09/06 10:19:04;;;;;;;28.8;8.5;;;;;;;22.43;64.65234;938.1633;;;;
2020/09/06 10:21:29;;;;;;;5;2.4;;;;;;;22.72;62.37109;938.1453;;;;
2020/09/06 10:23:54;;;;;;;1.5;1.2;;;;;;;22.93;60.94434;938.0876;;;;
2020/09/06 10:26:21;;;;;;;11.1;2.1;;;;;;;23.41;61.55078;938.0783;;;;
2020/09/06 10:28:46;;;;;;;1.3;0.9;;;;;;;23.51;59.75293;938.0695;;;;
2020/09/06 10:31:13;;;;;;;2.1;1.4;;;;;;;23.66;59.70215;937.9958;;;;
2020/09/06 10:33:38;;;;;;;1;0.8;;;;;;;23.62;59.88574;937.9867;;;;
2020/09/06 10:36:05;;;;;;;2.2;1;;;;;;;23.46;60.19434;937.9748;;;;
2020/09/06 10:38:30;;;;;;;1.3;1;;;;;;;23.29;60.29883;937.9135;;;;
2020/09/06 10:40:56;;;;;;;5.1;1.4;;;;;;;23.33;59.9043;937.928;;;;
2020/09/06 10:43:24;;;;;;;1.5;1;;;;;;;23.48;60.03223;937.9171;;;;
2020/09/06 10:45:49;;;;;;;1.3;0.8;;;;;;;23.33;59.11914;937.9253;;;;
2020/09/06 10:48:14;;;;;;;0.8;0.7;;;;;;;23.29;58.63086;937.8293;;;;
2020/09/06 10:50:41;;;;;;;1;0.8;;;;;;;23.34;59.40234;937.8777;;;;
2020/09/06 10:53:06;;;;;;;1.4;0.8;;;;;;;23.13;60.17285;937.899;;;;
2020/09/06 10:55:32;;;;;;;0.9;0.7;;;;;;;23;60.4375;937.9225;;;;
2020/09/06 10:57:57;;;;;;;1.6;1;;;;;;;22.8;60.58496;937.9509;;;;
2020/09/06 11:00:26;;;;;;;0.7;0.7;;;;;;;22.54;61.2666;937.9432;;;;
2020/09/06 11:02:51;;;;;;;0.9;0.7;;;;;;;22.42;62.30664;937.8589;;;;
2020/09/06 11:05:17;;;;;;;0.9;0.6;;;;;;;22.73;60.63379;937.7977;;;;
2020/09/06 11:07:42;;;;;;;1;0.8;;;;;;;22.88;62.24121;937.7168;;;;
2020/09/06 11:10:07;;;;;;;1;0.7;;;;;;;23.14;61.47754;937.7784;;;;
2020/09/06 11:12:32;;;;;;;1.1;0.9;;;;;;;23.25;59.49512;937.7006;;;;
2020/09/06 11:14:58;;;;;;;1.6;0.9;;;;;;;23.6;60.76563;937.7029;;;;
2020/09/06 11:17:23;;;;;;;1.6;0.8;;;;;;;24.1;56.66406;937.649;;;;
2020/09/06 11:19:49;;;;;;;1.4;0.9;;;;;;;23.69;57.73047;937.6423;;;;
2020/09/06 11:22:14;;;;;;;1.5;0.7;;;;;;;23.38;58.67676;937.6487;;;;
2020/09/06 11:24:41;;;;;;;1;0.7;;;;;;;23.43;58.68555;937.7501;;;;
2020/09/06 11:27:06;;;;;;;1.8;1.1;;;;;;;23.07;60.05859;937.7698;;;;
2020/09/06 11:29:32;;;;;;;1.9;0.8;;;;;;;22.97;60.52637;937.7745;;;;
2020/09/06 11:31:57;;;;;;;1.4;0.8;;;;;;;22.84;60.18066;937.7963;;;;
2020/09/06 11:34:24;;;;;;;1;0.9;;;;;;;22.66;60.27344;937.7798;;;;
2020/09/06 11:36:49;;;;;;;1.6;0.8;;;;;;;22.63;61.25586;937.7916;;;;
2020/09/06 11:39:16;;;;;;;0.8;0.8;;;;;;;22.53;60.04492;937.7642;;;;
2020/09/06 11:41:41;;;;;;;0.8;0.6;;;;;;;22.18;61.89551;937.6964;;;;
2020/09/06 11:44:06;;;;;;;1.3;0.6;;;;;;;21.76;63.11426;937.7266;;;;
2020/09/06 11:46:31;;;;;;;0.7;0.6;;;;;;;21.66;62.9834;937.7631;;;;
2020/09/06 11:49:03;;;;;;;0.8;0.7;;;;;;;21.46;63.98535;937.7567;;;;
2020/09/06 11:51:29;;;;;;;2;0.9;;;;;;;21.29;64.28809;937.7782;;;;
2020/09/06 11:53:54;;;;;;;0.9;0.5;;;;;;;21.09;65.04297;937.7202;;;;
2020/09/06 11:56:20;;;;;;;1.3;0.6;;;;;;;20.78;66.46875;937.6904;;;;
2020/09/06 11:58:45;;;;;;;1.2;0.7;;;;;;;20.77;66.22363;937.7109;;;;
2020/09/06 12:01:10;;;;;;;0.8;0.6;;;;;;;20.72;67.15039;937.7011;;;;
2020/09/06 12:03:40;;;;;;;1.4;0.6;;;;;;;20.65;67.28125;937.7346;;;;
2020/09/06 12:06:06;;;;;;;0.8;0.7;;;;;;;20.61;67.56738;937.7128;;;;
2020/09/06 12:08:31;;;;;;;0.7;0.5;;;;;;;20.56;68.12012;937.6642;;;;
2020/09/06 12:11:00;;;;;;;0.9;0.6;;;;;;;20.31;69.07227;937.6898;;;;
2020/09/06 12:13:25;;;;;;;1.8;1;;;;;;;20.39;69.17969;937.7505;;;;
2020/09/06 12:15:50;;;;;;;1.5;0.6;;;;;;;20.35;69.00977;937.7679;;;;
2020/09/06 12:18:15;;;;;;;2.8;1.4;;;;;;;19.98;70.58496;937.755;;;;
2020/09/06 12:20:41;;;;;;;1.9;0.6;;;;;;;19.69;71.69141;937.7466;;;;
2020/09/06 12:23:07;;;;;;;2.1;0.8;;;;;;;19.65;71.63867;937.7637;;;;
2020/09/06 12:25:35;;;;;;;1.4;0.9;;;;;;;19.68;71.75;937.7905;;;;
2020/09/06 12:28:00;;;;;;;1.1;1;;;;;;;19.64;71.77734;937.7519;;;;
2020/09/06 12:30:25;;;;;;;1.1;0.9;;;;;;;19.62;71.61133;937.7828;;;;
2020/09/06 12:32:50;;;;;;;0.7;0.7;;;;;;;19.58;71.73242;937.8016;;;;
2020/09/06 12:35:17;;;;;;;1.1;0.8;;;;;;;19.38;72.90039;937.819;;;;
2020/09/06 12:37:41;;;;;;;1.5;0.9;;;;;;;19.45;72.70215;937.7522;;;;
2020/09/06 12:40:08;;;;;;;0.8;0.7;;;;;;;19.55;72.22949;937.7604;;;;
2020/09/06 12:42:33;;;;;;;1.5;1;;;;;;;19.6;72.4248;937.7751;;;;
2020/09/06 12:44:58;;;;;;;1.2;0.8;;;;;;;19.35;73.2334;937.7503;;;;
2020/09/06 12:47:23;;;;;;;1.3;0.9;;;;;;;19.4;73.73145;937.8209;;;;
2020/09/06 12:49:48;;;;;;;1.6;1;;;;;;;19.07;75.13184;937.8739;;;;
2020/09/06 12:52:14;;;;;;;1.9;1;;;;;;;19.13;75.64258;937.8055;;;;
2020/09/06 12:54:39;;;;;;;1.2;0.9;;;;;;;18.92;76.49219;937.8303;;;;
2020/09/06 12:57:04;;;;;;;1.3;1;;;;;;;18.88;77.25195;937.8161;;;;
2020/09/06 12:59:30;;;;;;;2.7;1.3;;;;;;;18.68;78.87109;937.858;;;;
2020/09/06 13:01:55;;;;;;;1;0.9;;;;;;;18.66;79.42383;937.8635;;;;
2020/09/06 13:04:22;;;;;;;6.4;1.4;;;;;;;18.58;79.24707;937.9306;;;;
2020/09/06 13:06:47;;;;;;;1.7;1.1;;;;;;;18.56;79.30176;937.9442;;;;
2020/09/06 13:09:13;;;;;;;1.8;1.3;;;;;;;18.64;79.43066;937.959;;;;
2020/09/06 13:11:38;;;;;;;3.2;1.7;;;;;;;18.56;79.63867;937.9763;;;;
2020/09/06 13:14:05;;;;;;;1.7;1.2;;;;;;;18.64;79.53711;937.9896;;;;
2020/09/06 13:16:30;;;;;;;3.6;1.2;;;;;;;18.68;79.14844;937.9139;;;;
2020/09/06 13:18:55;;;;;;;2.3;1.2;;;;;;;18.69;79.05664;937.916;;;;
2020/09/06 13:21:20;;;;;;;1.9;1;;;;;;;18.67;79.64844;937.9373;;;;
2020/09/06 13:23:45;;;;;;;1;0.9;;;;;;;18.6;79.86816;937.9867;;;;
2020/09/06 13:26:11;;;;;;;0.9;0.9;;;;;;;18.34;80.90137;938.0016;;;;
2020/09/06 13:28:36;;;;;;;1.4;1.1;;;;;;;18.23;81.44922;938.0452;;;;
2020/09/06 13:31:03;;;;;;;2.1;1.5;;;;;;;18.32;81.25684;938.1675;;;;
2020/09/06 13:33:28;;;;;;;3.3;1.4;;;;;;;18.35;81.2168;938.24;;;;
2020/09/06 13:35:55;;;;;;;2.6;1.4;;;;;;;18.28;81.26172;938.2737;;;;
2020/09/06 13:38:20;;;;;;;2.1;1.5;;;;;;;18.22;81.80957;938.2886;;;;
2020/09/06 13:40:47;;;;;;;1.9;1.4;;;;;;;18.34;81.22559;938.2468;;;;
2020/09/06 13:43:12;;;;;;;2;1.1;;;;;;;18.33;81.02637;938.1438;;;;
2020/09/06 13:45:37;;;;;;;2.5;1.4;;;;;;;18.18;81.97559;938.1642;;;;
2020/09/06 13:48:02;;;;;;;3;1.7;;;;;;;17.84;83.80371;938.1835;;;;
2020/09/06 13:50:28;;;;;;;3;1.5;;;;;;;17.9;82.84082;938.1895;;;;
2020/09/06 13:52:53;;;;;;;1.4;1.1;;;;;;;18.11;82.47363;938.1294;;;;
2020/09/06 13:55:19;;;;;;;2.2;1;;;;;;;17.75;83.10352;938.262;;;;
2020/09/06 13:57:44;;;;;;;2.3;1.5;;;;;;;17.96;82.37695;938.3157;;;;
2020/09/06 14:00:11;;;;;;;2;1.4;;;;;;;17.95;82.39648;938.3159;;;;
2020/09/06 14:02:36;;;;;;;2.2;1.3;;;;;;;17.96;82.43457;938.281;;;;
2020/09/06 14:05:15;;;;;;;1.4;1.1;;;;;;;17.94;82.26855;938.2644;;;;
2020/09/06 14:07:42;;;;;;;2.2;1.4;;;;;;;17.92;82.70508;938.2827;;;;
2020/09/06 14:10:07;;;;;;;1.4;1;;;;;;;17.95;81.97852;938.2902;;;;
2020/09/06 14:12:32;;;;;;;2.9;1.2;;;;;;;17.9;82.65332;938.3628;;;;
2020/09/06 14:14:57;;;;;;;2;0.9;;;;;;;17.78;82.0625;938.3631;;;;
2020/09/06 14:17:25;;;;;;;1.1;0.8;;;;;;;17.78;82.89844;938.3647;;;;
2020/09/06 14:19:49;;;;;;;1.2;0.6;;;;;;;17.59;83.39844;938.3972;;;;
2020/09/06 14:22:17;;;;;;;1.5;0.7;;;;;;;17.64;83.38379;938.3491;;;;